This is the latest recevied weather packets stored in our database for station/object OE6JUE. If no packets are shown the sender has not sent any weather packets the latest 10 day(s).
| Time | Temp. | Humidity | Pressure | Rain* | Wind** | Luminosity | Snow |
|---|---|---|---|---|---|---|---|
| 1777600312 | 1.67° C | 63% | 1028.8 hPa | 0 mm | - | - | - |
| 1777587411 | 2.22° C | 58% | 1029 hPa | 0 mm | - | - | - |
| 1777587111 | 2.78° C | 57% | 1029.1 hPa | 0 mm | - | - | - |
| 1777586211 | 2.78° C | 57% | 1029.2 hPa | 0 mm | - | - | - |
| 1777585611 | 3.33° C | 57% | 1029.3 hPa | 0 mm | - | - | - |
| 1777584711 | 3.33° C | 56% | 1029.2 hPa | 0 mm | - | - | - |
| 1777583511 | 4.44° C | 53% | 1029.1 hPa | 0 mm | - | - | - |
| 1777583211 | 4.44° C | 53% | 1029.1 hPa | 0 mm | - | - | - |
| 1777582311 | 5° C | 51% | 1029 hPa | 0 mm | - | - | - |
| 1777582011 | 5° C | 50% | 1029.1 hPa | 0 mm | - | - | - |
| 1777581111 | 5.56° C | 51% | 1028.9 hPa | 0 mm | - | - | - |
| 1777580811 | 5.56° C | 50% | 1028.8 hPa | 0 mm | - | - | - |
| 1777579610 | 6.11° C | 49% | 1028.9 hPa | 0 mm | - | - | - |
| 1777578711 | 6.67° C | 47% | 1028.8 hPa | 0 mm | - | - | - |
| 1777577811 | 6.67° C | 45% | 1028.7 hPa | 0 mm | - | - | - |
| 1777574104 | 11.11° C | 30% | 1027.8 hPa | 0 mm | - | - | - |
| 1777573504 | 11.67° C | 30% | 1027.7 hPa | 0 mm | - | - | - |
| 1777572604 | 12.22° C | 30% | 1027.4 hPa | 0 mm | - | - | - |
| 1777572004 | 12.22° C | 30% | 1027.5 hPa | - | - | - | - |
| 1777570204 | 13.33° C | 24% | 1027.1 hPa | 0 mm | - | - | - |
| 1777569904 | 13.33° C | 22% | 1027 hPa | 0 mm | - | - | - |
| 1777568704 | 13.33° C | 22% | 1026.9 hPa | 0 mm | - | - | - |
| 1777568104 | 13.89° C | 22% | 1026.7 hPa | 0 mm | - | - | - |
| 1777567204 | 14.44° C | 22% | 1026.9 hPa | 0 mm | - | - | - |
| 1777566904 | 14.44° C | 22% | 1026.8 hPa | 0 mm | - | - | - |
* Rain latest hour (hover to see other rain measurements)
** Current wind speed in m/s (hover to see current wind gust speed)